createdAt,value
2022-10-13T00:02:50.098Z,8.71
2022-10-13T00:05:51.795Z,8.64
2022-10-13T00:08:54.913Z,8.56
2022-10-13T00:11:57.240Z,8.53
2022-10-13T00:14:59.249Z,8.47
2022-10-13T00:18:02.906Z,8.45
2022-10-13T00:21:07.150Z,8.41
2022-10-13T00:24:11.855Z,8.39
2022-10-13T00:27:13.620Z,8.34
2022-10-13T00:30:15.478Z,8.47
2022-10-13T00:33:18.452Z,8.54
2022-10-13T00:36:20.355Z,8.60
2022-10-13T00:39:23.302Z,8.65
2022-10-13T00:42:26.398Z,8.61
2022-10-13T00:45:29.653Z,8.62
2022-10-13T00:48:31.299Z,8.59
2022-10-13T00:51:34.804Z,8.53
2022-10-13T00:54:37.807Z,8.47
2022-10-13T00:57:40.265Z,8.47
2022-10-13T01:00:43.587Z,8.47
2022-10-13T01:03:45.627Z,8.59
2022-10-13T01:06:47.400Z,8.64
2022-10-13T01:09:50.790Z,8.64
2022-10-13T01:12:58.191Z,8.64
2022-10-13T01:16:01.606Z,8.68
2022-10-13T01:19:11.335Z,8.71
2022-10-13T01:22:19.791Z,8.78
2022-10-13T01:25:34.580Z,8.80
2022-10-13T01:28:50.121Z,8.78
2022-10-13T01:31:57.510Z,8.79
2022-10-13T01:35:03.760Z,8.83
2022-10-13T01:38:08.426Z,8.82
2022-10-13T01:41:13.928Z,8.77
2022-10-13T01:44:19.789Z,8.73
2022-10-13T01:47:23.938Z,8.62
2022-10-13T01:50:26.105Z,8.56
2022-10-13T01:53:29.001Z,8.48
2022-10-13T01:56:30.810Z,8.42
2022-10-13T01:59:35.362Z,8.42
2022-10-13T02:02:41.901Z,8.38
2022-10-13T02:05:49.408Z,8.34
2022-10-13T02:08:56.219Z,8.33
2022-10-13T02:11:59.936Z,8.41
2022-10-13T02:15:04.777Z,8.40
2022-10-13T02:18:09.642Z,8.35
2022-10-13T02:21:11.675Z,8.30
2022-10-13T02:24:13.984Z,8.27
2022-10-13T02:27:16.319Z,8.25
2022-10-13T02:30:21.936Z,8.25
2022-10-13T02:33:27.280Z,8.26
2022-10-13T02:36:29.177Z,8.30
2022-10-13T02:39:30.732Z,8.33
2022-10-13T02:42:32.505Z,8.34
2022-10-13T02:45:34.156Z,8.35
2022-10-13T02:48:38.657Z,8.32
2022-10-13T02:51:40.703Z,8.27
2022-10-13T02:54:42.908Z,8.25
2022-10-13T02:57:44.617Z,8.27
2022-10-13T03:00:46.311Z,8.35
2022-10-13T03:03:52.104Z,8.32
2022-10-13T03:06:53.891Z,8.36
2022-10-13T03:09:55.601Z,8.40
2022-10-13T03:12:57.493Z,8.42
2022-10-13T03:15:59.287Z,8.45
2022-10-13T03:19:02.474Z,8.43
2022-10-13T03:22:04.208Z,8.43
2022-10-13T03:25:06.644Z,8.45
2022-10-13T03:28:08.294Z,8.45
2022-10-13T03:31:14.553Z,8.46
2022-10-13T03:34:17.806Z,8.47
2022-10-13T03:37:19.490Z,8.51
2022-10-13T03:40:25.124Z,8.49
2022-10-13T03:43:26.778Z,8.54
2022-10-13T03:46:29.573Z,8.59
2022-10-13T03:49:32.579Z,8.60
2022-10-13T03:52:34.315Z,8.64
2022-10-13T03:55:35.855Z,8.68
2022-10-13T03:58:37.472Z,8.69
2022-10-13T04:01:39.707Z,8.74
2022-10-13T04:04:42.695Z,8.77
2022-10-13T04:07:44.492Z,8.77
2022-10-13T04:10:46.136Z,8.77
2022-10-13T04:13:48.924Z,8.77
2022-10-13T04:16:50.586Z,8.76
2022-10-13T04:19:55.704Z,8.76
2022-10-13T04:22:57.360Z,8.75
2022-10-13T04:25:59.059Z,8.73
2022-10-13T04:29:02.849Z,8.73
2022-10-13T04:32:04.726Z,8.69
2022-10-13T04:35:08.216Z,8.69
2022-10-13T04:38:09.947Z,8.71
2022-10-13T04:41:14.786Z,8.71
2022-10-13T04:44:16.773Z,8.65
2022-10-13T04:47:18.550Z,8.60
2022-10-13T04:50:21.812Z,8.56
2022-10-13T04:53:24.218Z,8.54
2022-10-13T04:56:26.211Z,8.51
2022-10-13T04:59:27.942Z,8.51
2022-10-13T05:02:29.809Z,8.48
2022-10-13T05:05:35.085Z,8.51
2022-10-13T05:08:37.628Z,8.51
2022-10-13T05:11:41.312Z,8.49
2022-10-13T05:14:42.886Z,8.46
2022-10-13T05:17:45.116Z,8.45
2022-10-13T05:20:48.490Z,8.43
2022-10-13T05:23:53.915Z,8.41
2022-10-13T05:26:55.592Z,8.39
2022-10-13T05:30:04.954Z,8.40
2022-10-13T05:33:06.489Z,8.43
2022-10-13T05:36:10.892Z,8.45
2022-10-13T05:39:13.279Z,8.47
2022-10-13T05:42:14.929Z,8.47
2022-10-13T05:45:18.038Z,8.47
2022-10-13T05:48:19.790Z,8.44
2022-10-13T05:51:24.014Z,8.48
2022-10-13T05:54:30.378Z,8.52
2022-10-13T05:57:33.388Z,8.54
2022-10-13T06:00:35.128Z,8.54
2022-10-13T06:03:37.265Z,8.54
2022-10-13T06:06:40.399Z,8.53
2022-10-13T06:09:51.350Z,8.51
2022-10-13T06:12:52.970Z,8.53
2022-10-13T06:15:55.656Z,8.52
2022-10-13T06:18:57.280Z,8.51
2022-10-13T06:22:03.593Z,8.53
2022-10-13T06:25:09.880Z,8.54
2022-10-13T06:28:13.268Z,8.57
2022-10-13T06:31:14.984Z,8.57
2022-10-13T06:34:16.663Z,8.59
2022-10-13T06:37:24.705Z,8.61
2022-10-13T06:40:28.726Z,8.64
2022-10-13T06:43:38.726Z,8.67
2022-10-13T06:46:42.024Z,8.73
2022-10-13T06:49:44.354Z,8.76
2022-10-13T06:52:50.462Z,8.80
2022-10-13T06:55:58.198Z,8.82
2022-10-13T06:58:59.916Z,8.82
2022-10-13T07:02:01.578Z,8.84
2022-10-13T07:05:03.823Z,8.89
2022-10-13T07:08:07.187Z,8.90
2022-10-13T07:11:14.526Z,8.94
2022-10-13T07:14:17.764Z,8.97
2022-10-13T07:17:19.491Z,9.02
2022-10-13T07:20:21.491Z,9.05
2022-10-13T07:23:24.671Z,9.07
2022-10-13T07:26:28.232Z,9.11
2022-10-13T07:29:29.780Z,9.14
2022-10-13T07:32:31.998Z,9.17
2022-10-13T07:35:33.574Z,9.23
2022-10-13T07:38:36.688Z,9.25
2022-10-13T07:41:38.462Z,9.31
2022-10-13T07:44:40.218Z,9.35
2022-10-13T07:47:42.056Z,9.37
2022-10-13T07:50:43.598Z,9.39
2022-10-13T07:53:47.048Z,9.43
2022-10-13T07:56:51.048Z,9.47
2022-10-13T07:59:52.771Z,9.46
2022-10-13T08:02:54.330Z,9.50
2022-10-13T08:05:58.603Z,9.54
2022-10-13T08:09:02.026Z,9.55
2022-10-13T08:12:03.842Z,9.59
2022-10-13T08:15:06.662Z,9.61
2022-10-13T08:18:09.090Z,9.63
2022-10-13T08:21:53.338Z,9.65
2022-10-13T08:24:36.546Z,9.66
2022-10-13T08:27:50.588Z,9.69
2022-10-13T08:30:54.312Z,9.72
2022-10-13T08:33:56.295Z,9.71
2022-10-13T08:37:00.036Z,9.73
2022-10-13T08:40:06.499Z,9.77
2022-10-13T08:43:08.874Z,9.82
2022-10-13T08:46:11.761Z,9.89
2022-10-13T08:49:16.593Z,9.98
2022-10-13T08:52:20.190Z,10.08
2022-10-13T08:55:29.487Z,10.21
2022-10-13T08:58:33.501Z,10.35
2022-10-13T09:01:36.582Z,10.42
2022-10-13T09:04:41.608Z,10.51
2022-10-13T09:07:46.117Z,10.58
2022-10-13T09:10:50.143Z,10.66
2022-10-13T09:13:54.314Z,10.81
2022-10-13T09:16:57.909Z,10.88
2022-10-13T09:20:00.730Z,10.94
2022-10-13T09:23:03.840Z,10.94
2022-10-13T09:26:16.260Z,10.87
2022-10-13T09:29:19.174Z,10.94
2022-10-13T09:32:24.004Z,10.99
2022-10-13T09:35:25.936Z,11.04
2022-10-13T09:38:28.115Z,11.12
2022-10-13T09:41:31.432Z,11.16
2022-10-13T09:44:33.371Z,11.34
2022-10-13T09:47:35.135Z,11.54
2022-10-13T09:50:36.937Z,11.74
2022-10-13T09:53:40.183Z,11.82
2022-10-13T09:56:46.450Z,11.96
2022-10-13T09:59:52.958Z,12.03
2022-10-13T10:02:57.890Z,12.09
2022-10-13T10:06:00.649Z,12.23
2022-10-13T10:09:05.584Z,12.26
2022-10-13T10:12:12.586Z,12.48
2022-10-13T10:15:20.905Z,12.57
2022-10-13T10:18:31.411Z,12.72
2022-10-13T10:21:37.286Z,12.82
2022-10-13T10:24:44.412Z,12.95
2022-10-13T10:27:52.635Z,12.94
2022-10-13T10:30:58.781Z,13.24
2022-10-13T10:34:07.892Z,13.18
2022-10-13T10:37:22.861Z,13.07
2022-10-13T10:40:32.428Z,13.13
2022-10-13T10:43:52.121Z,13.20
2022-10-13T10:46:57.465Z,13.28
2022-10-13T10:50:01.903Z,13.23
2022-10-13T10:53:06.491Z,13.32
2022-10-13T10:56:14.045Z,13.38
2022-10-13T10:59:26.528Z,13.45
2022-10-13T11:02:42.664Z,13.71
2022-10-13T11:06:00.806Z,13.80
2022-10-13T11:09:03.923Z,13.77
2022-10-13T11:12:22.495Z,13.88
2022-10-13T11:15:25.202Z,14.15
2022-10-13T11:18:45.790Z,14.09
2022-10-13T11:22:06.427Z,14.20
2022-10-13T11:25:36.536Z,14.10
2022-10-13T11:28:47.909Z,13.99
2022-10-13T11:31:51.410Z,13.93
2022-10-13T11:34:57.658Z,13.82
2022-10-13T11:38:20.980Z,13.78
2022-10-13T11:41:27.357Z,13.82
2022-10-13T11:44:33.734Z,13.81
2022-10-13T11:47:49.016Z,13.81
2022-10-13T11:50:57.729Z,13.83
2022-10-13T11:54:05.518Z,13.80
2022-10-13T11:57:18.799Z,13.77
2022-10-13T12:00:20.512Z,13.71
2022-10-13T12:03:23.807Z,13.63
2022-10-13T12:06:33.201Z,13.57
2022-10-13T12:09:36.733Z,13.58
2022-10-13T12:12:45.989Z,13.74
2022-10-13T12:15:47.569Z,13.96
2022-10-13T12:18:49.248Z,14.23
2022-10-13T12:21:51.833Z,14.63
2022-10-13T12:24:56.938Z,14.63
2022-10-13T12:28:01.109Z,14.61
2022-10-13T12:31:03.338Z,14.46
2022-10-13T12:34:05.169Z,14.45
2022-10-13T12:37:11.842Z,14.59
2022-10-13T12:40:14.236Z,14.49
2022-10-13T12:43:19.107Z,14.47
2022-10-13T12:46:36.923Z,14.49
2022-10-13T12:49:39.046Z,14.58
2022-10-13T12:52:40.608Z,14.63
2022-10-13T12:55:47.713Z,14.56
2022-10-13T12:58:50.833Z,14.48
2022-10-13T13:01:53.344Z,14.44
2022-10-13T13:04:55.527Z,14.40
2022-10-13T13:07:57.312Z,14.37
2022-10-13T13:11:00.168Z,14.33
2022-10-13T13:14:16.728Z,14.33
2022-10-13T13:20:47.703Z,14.30
2022-10-13T13:23:53.076Z,14.33
2022-10-13T13:26:55.919Z,14.36
2022-10-13T13:29:57.612Z,14.45
2022-10-13T13:33:00.563Z,14.63
2022-10-13T13:36:02.471Z,14.73
2022-10-13T13:39:06.809Z,14.79
2022-10-13T13:42:14.185Z,14.71
2022-10-13T13:45:16.553Z,14.63
2022-10-13T13:48:19.548Z,14.61
2022-10-13T13:51:21.385Z,14.58
2022-10-13T13:54:23.004Z,14.52
2022-10-13T13:57:24.631Z,14.45
2022-10-13T14:00:26.165Z,14.42
2022-10-13T14:03:30.480Z,14.38
2022-10-13T14:06:32.274Z,14.37
2022-10-13T14:09:34.321Z,14.33
2022-10-13T14:12:39.350Z,14.31
2022-10-13T14:15:40.994Z,14.31
2022-10-13T14:18:44.155Z,14.32
2022-10-13T14:21:46.156Z,14.32
2022-10-13T14:24:48.001Z,14.30
2022-10-13T14:27:49.863Z,14.29
2022-10-13T14:30:51.639Z,14.26
2022-10-13T14:33:54.941Z,14.26
2022-10-13T14:36:56.997Z,14.27
2022-10-13T14:39:58.729Z,14.26
2022-10-13T14:43:00.413Z,14.24
2022-10-13T14:46:02.801Z,14.23
2022-10-13T14:49:05.939Z,14.20
2022-10-13T14:52:09.038Z,14.17
2022-10-13T14:55:16.659Z,14.14
2022-10-13T14:58:18.702Z,14.13
2022-10-13T15:01:20.696Z,14.11
2022-10-13T15:04:24.334Z,14.08
2022-10-13T15:07:26.275Z,14.07
2022-10-13T15:10:28.051Z,14.04
2022-10-13T15:13:29.812Z,14.01
2022-10-13T15:16:33.682Z,14.00
2022-10-13T15:19:36.790Z,13.98
2022-10-13T15:22:38.419Z,13.96
2022-10-13T15:25:40.853Z,13.96
2022-10-13T15:28:44.128Z,13.95
2022-10-13T15:31:45.700Z,13.91
2022-10-13T15:34:48.643Z,13.87
2022-10-13T15:37:50.298Z,13.83
2022-10-13T15:40:52.146Z,13.80
2022-10-13T15:43:53.858Z,13.75
2022-10-13T15:47:07.875Z,13.68
2022-10-13T15:50:11.862Z,13.62
2022-10-13T15:53:15.854Z,13.58
2022-10-13T15:56:17.567Z,13.53
2022-10-13T15:59:19.288Z,13.48
2022-10-13T16:02:22.074Z,13.45
2022-10-13T16:05:25.651Z,13.42
2022-10-13T16:08:27.638Z,13.37
2022-10-13T16:11:29.477Z,13.34
2022-10-13T16:14:31.066Z,13.29
2022-10-13T16:17:33.110Z,13.26
2022-10-13T16:20:37.929Z,13.25
2022-10-13T16:23:39.559Z,13.24
2022-10-13T16:26:41.205Z,13.23
2022-10-13T16:29:42.760Z,13.23
2022-10-13T16:32:44.392Z,13.22
2022-10-13T16:35:47.408Z,13.17
2022-10-13T16:38:49.986Z,13.02
2022-10-13T16:41:52.331Z,12.80
2022-10-13T16:44:54.060Z,12.59
2022-10-13T16:47:55.638Z,12.45
2022-10-13T16:50:58.824Z,12.32
2022-10-13T16:54:04.233Z,12.26
2022-10-13T16:57:06.230Z,12.20
2022-10-13T17:00:12.763Z,12.19
2022-10-13T17:03:14.424Z,12.11
2022-10-13T17:06:18.070Z,12.07
2022-10-13T17:09:19.845Z,12.04
2022-10-13T17:12:21.404Z,12.00
2022-10-13T17:15:23.319Z,11.99
2022-10-13T17:18:25.216Z,11.96
2022-10-13T17:21:28.512Z,11.94
2022-10-13T17:24:30.742Z,11.94
2022-10-13T17:27:36.608Z,11.94
2022-10-13T17:30:38.243Z,11.90
2022-10-13T17:33:40.838Z,11.89
2022-10-13T17:36:44.034Z,11.88
2022-10-13T17:39:45.917Z,11.88
2022-10-13T17:42:47.667Z,11.86
2022-10-13T17:45:49.336Z,11.84
2022-10-13T17:48:50.998Z,11.84
2022-10-13T17:51:55.211Z,11.84
2022-10-13T17:54:56.882Z,11.83
2022-10-13T17:57:58.378Z,11.83
2022-10-13T18:01:12.848Z,11.83
2022-10-13T18:04:17.191Z,11.81
2022-10-13T18:07:20.493Z,11.79
2022-10-13T18:10:22.251Z,11.78
2022-10-13T18:13:23.812Z,11.77
2022-10-13T18:16:25.525Z,11.76
2022-10-13T18:19:27.030Z,11.74
2022-10-13T18:22:30.017Z,11.75
2022-10-13T18:25:33.997Z,11.75
2022-10-13T18:28:36.630Z,11.75
2022-10-13T18:31:39.519Z,11.73
2022-10-13T18:34:41.072Z,11.73
2022-10-13T18:37:49.182Z,11.71
2022-10-13T18:40:50.935Z,11.69
2022-10-13T18:43:55.670Z,11.66
2022-10-13T18:46:57.439Z,11.64
2022-10-13T18:49:59.934Z,11.63
2022-10-13T18:53:03.282Z,11.61
2022-10-13T18:56:05.670Z,11.61
2022-10-13T18:59:08.348Z,11.59
2022-10-13T19:02:13.034Z,11.58
2022-10-13T19:05:17.832Z,11.58
2022-10-13T19:08:20.904Z,11.60
2022-10-13T19:11:22.904Z,11.61
2022-10-13T19:14:24.643Z,11.63
2022-10-13T19:17:26.303Z,11.63
2022-10-13T19:20:28.183Z,11.62
2022-10-13T19:23:31.185Z,11.61
2022-10-13T19:26:33.880Z,11.60
2022-10-13T19:29:35.577Z,11.60
2022-10-13T19:32:38.476Z,11.58
2022-10-13T19:35:40.892Z,11.57
2022-10-13T19:38:45.168Z,11.56
2022-10-13T19:41:50.867Z,11.55
2022-10-13T19:44:52.730Z,11.55
2022-10-13T19:47:54.289Z,11.54
2022-10-13T19:50:56.023Z,11.53
2022-10-13T19:53:59.106Z,11.51
2022-10-13T19:57:00.699Z,11.51
2022-10-13T20:00:02.518Z,11.50
2022-10-13T20:03:04.853Z,11.50
2022-10-13T20:06:06.856Z,11.51
2022-10-13T20:09:09.997Z,11.52
2022-10-13T20:12:11.937Z,11.52
2022-10-13T20:15:14.236Z,11.51
2022-10-13T20:18:15.954Z,11.50
2022-10-13T20:21:18.042Z,11.48
2022-10-13T20:24:23.279Z,11.48
2022-10-13T20:27:25.089Z,11.48
2022-10-13T20:30:26.685Z,11.48
2022-10-13T20:33:28.689Z,11.49
2022-10-13T20:36:34.709Z,11.48
2022-10-13T20:39:41.072Z,11.47
2022-10-13T20:42:43.065Z,11.47
2022-10-13T20:45:44.926Z,11.47
2022-10-13T20:52:08.803Z,11.46
2022-10-13T20:55:12.129Z,11.45
2022-10-13T20:58:13.679Z,11.44
2022-10-13T21:01:15.472Z,11.42
2022-10-13T21:04:17.511Z,11.43
2022-10-13T21:07:19.425Z,11.42
2022-10-13T21:10:22.563Z,11.41
2022-10-13T21:13:25.589Z,11.40
2022-10-13T21:16:28.308Z,11.40
2022-10-13T21:19:30.285Z,11.39
2022-10-13T21:22:31.867Z,11.38
2022-10-13T21:25:35.958Z,11.37
2022-10-13T21:28:38.968Z,11.37
2022-10-13T21:31:40.933Z,11.37
2022-10-13T21:34:45.658Z,11.36
2022-10-13T21:37:47.337Z,11.37
2022-10-13T21:40:53.832Z,11.35
2022-10-13T21:43:55.976Z,11.33
2022-10-13T21:46:58.286Z,11.35
2022-10-13T21:50:00.209Z,11.35
2022-10-13T21:53:01.847Z,11.33
2022-10-13T21:56:07.091Z,11.33
2022-10-13T21:59:10.695Z,11.32
2022-10-13T22:02:12.391Z,11.29
2022-10-13T22:05:14.357Z,11.29
2022-10-13T22:08:16.017Z,11.28
2022-10-13T22:11:19.802Z,11.27
2022-10-13T22:14:21.559Z,11.27
2022-10-13T22:17:23.568Z,11.26
2022-10-13T22:20:25.533Z,11.24
2022-10-13T22:23:27.415Z,11.22
2022-10-13T22:26:31.759Z,11.19
2022-10-13T22:29:33.542Z,11.17
2022-10-13T22:32:35.238Z,11.17
2022-10-13T22:35:37.116Z,11.16
2022-10-13T22:38:41.493Z,11.16
2022-10-13T22:41:45.034Z,11.14
2022-10-13T22:44:46.858Z,11.13
2022-10-13T22:47:49.077Z,11.13
2022-10-13T22:50:50.721Z,11.11
2022-10-13T22:53:52.648Z,11.10
2022-10-13T22:56:56.072Z,11.10
2022-10-13T22:59:58.058Z,11.10
2022-10-13T23:02:59.928Z,11.09
2022-10-13T23:06:01.734Z,11.10
2022-10-13T23:09:04.538Z,11.11
2022-10-13T23:12:07.483Z,11.12
2022-10-13T23:15:09.980Z,11.12
2022-10-13T23:18:11.519Z,11.11
2022-10-13T23:21:14.149Z,11.11
2022-10-13T23:24:15.709Z,11.11
2022-10-13T23:27:21.559Z,11.11
2022-10-13T23:30:23.499Z,11.10
2022-10-13T23:33:25.539Z,11.09
2022-10-13T23:36:28.497Z,11.09
2022-10-13T23:39:30.008Z,11.10
2022-10-13T23:42:32.997Z,11.08
2022-10-13T23:45:34.504Z,11.07
2022-10-13T23:48:36.092Z,11.06
2022-10-13T23:51:37.604Z,11.05
2022-10-13T23:54:39.225Z,11.06
2022-10-13T23:57:42.153Z,11.06
